Effective Sunday, March 17, 2024, the National Weather Service National Data Buoy Center will discontinue its Dial-A-Buoy Interactive Voice Response system. For more information, see Service Change Notice 24-06 (PDF).

Station WFPM4 - Whitefish Point, MI Image indicating link to RSS feed of recent meteorological observations for station WFPM4


Conditions at WFPM4 as of
(11:40 am EST)
1640 GMT on 03/02/2024:
     

Click on the graph icon in the table below to see a time series plot of the last five days of that observation.

5-day plot - Wind Direction Wind Direction (WDIR): SE ( 140 deg true )
5-day plot - Wind Speed Wind Speed (WSPD): 9.9 kts
5-day plot - Wind Gust Wind Gust (GST): 12.0 kts
5-day plot - Air Temperature Air Temperature (ATMP): 37.8 °F
5-day plot - Wind Chill Wind Chill (CHILL): 30.2 °F
5-day plot - Wind Speed at 10 Meters Wind Speed at 10 meters (WSPD10M): 9.7 kts
5-day plot - Wind Speed at 20 Meters Wind Speed at 20 meters (WSPD20M): 9.7 kts
5-day plot -  Wind Speed, Wind Gust and Atmospheric Pressure Combined plot of Wind Speed, Gust, and Air Pressure
Previous observations
TIME
(EST)
5-day plot - Wind Direction
WDIR
 
5-day plot - Wind Speed
WSPD
kts
5-day plot - Wind Gust
GST
kts
5-day plot - Wave Height
WVHT
ft
5-day plot - Dominant Wave Period
DPD
sec
5-day plot - Average Wave Period
APD
sec
5-day plot - Mean Wave Direction
MWD
 
5-day plot - Atmospheric Pressure
PRES
in
5-day plot - Pressure Tendency
PTDY
in
5-day plot - Air Temperature
ATMP
°F
5-day plot - Water Temperature
WTMP
°F
5-day plot - Dew Point
DEWP
°F
5-day plot - Salinity
SAL
psu
5-day plot - Visibility
VIS
nmi
5-day plot - Tide (above MLLW)
TIDE
ft
2024-03-02 11:30 amSSE 8.9 12.0------ 37.8-----
2024-03-02 11:20 amSSE 11.1 12.0------ 37.2-----
2024-03-02 11:10 am SE 8.9 9.9------ 37.6-----
2024-03-02 11:00 amSSE 7.0 9.9------ 39.9-----
2024-03-02 10:50 amSSE 8.0 9.9------ 38.1-----
2024-03-02 10:40 amSSE 7.0 9.9------ 37.6-----
2024-03-02 10:30 amSSE 7.0 9.9------ 37.9-----
2024-03-02 10:20 amSSE 5.1 8.0------ 37.0-----
2024-03-02 10:10 amSSE 5.1 8.9------ 35.4-----
2024-03-02 10:00 am S 6.0 8.9------ 35.8-----
2024-03-02 09:50 am S 5.1 8.9------ 36.1-----
2024-03-02 09:40 am S 6.0 8.9------ 35.1-----
2024-03-02 09:30 am S 8.0 11.1------ 35.2-----
2024-03-02 09:20 am S 8.0 9.9------ 35.4-----
2024-03-02 09:10 amSSE 7.0 8.0------ 35.6-----
2024-03-02 09:00 am S 7.0 8.9------ 34.5-----
2024-03-02 08:50 am S 6.0 7.0------ 34.7-----
2024-03-02 08:40 am S 6.0 8.9------ 34.2-----
2024-03-02 08:30 am S 8.0 11.1------ 33.6-----
2024-03-02 08:20 am S 7.0 12.0------ 33.4-----
2024-03-02 08:10 am S 9.9 11.1------ 33.3-----
2024-03-02 08:00 am S 8.0 9.9------ 33.6-----
2024-03-02 07:50 am S 8.9 11.1------ 33.8-----
2024-03-02 07:40 am S 8.0 12.0------ 33.4-----
2024-03-02 07:30 am S 9.9 13.0------ 33.8-----
2024-03-02 07:20 amSSW 9.9 13.0------ 33.6-----
2024-03-02 07:10 amSSW 11.1 13.0------ 33.8-----
2024-03-02 07:00 amSSW 8.9 11.1------ 34.0-----
2024-03-02 06:50 amSSW 9.9 13.0------ 34.2-----
2024-03-02 06:40 amSSW 9.9 13.0------ 34.0-----
2024-03-02 06:30 amSSW 8.9 12.0------ 33.6-----
2024-03-02 06:20 amSSW 8.9 11.1------ 33.6-----
2024-03-02 06:10 amSSW 8.9 14.0------ 33.8-----
2024-03-02 06:00 amSSW 8.0 11.1------ 33.4-----
2024-03-02 05:50 amSSW 8.9 12.0------ 33.8-----
2024-03-02 05:40 amSSW 8.0 12.0------ 33.4-----
2024-03-02 05:30 amSSW 9.9 13.0------ 33.6-----
2024-03-02 05:20 amSSW 9.9 13.0------ 34.0-----
2024-03-02 05:10 amSSW 9.9 12.0------ 33.6-----
2024-03-02 05:00 amSSW 9.9 13.0------ 33.8-----
2024-03-02 04:50 amSSW 11.1 13.0------ 33.6-----
2024-03-02 04:40 amSSW 11.1 13.0------ 33.6-----
2024-03-02 04:30 amSSW 9.9 12.0------ 33.4-----
2024-03-02 04:20 amSSW 8.9 11.1------ 32.9-----
2024-03-02 04:10 amSSW 11.1 12.0------ 33.3-----
2024-03-02 04:00 amSSW 8.9 11.1------ 33.4-----
2024-03-02 03:50 amSSW 9.9 13.0------ 33.3-----
2024-03-02 03:40 amSSW 9.9 12.0------ 33.3-----
2024-03-02 03:30 am S 8.9 12.0------ 33.4-----
2024-03-02 03:20 amSSW 11.1 13.0------ 33.4-----
2024-03-02 03:10 am S 11.1 14.0------ 33.4-----
2024-03-02 03:00 am S 11.1 14.0------ 33.8-----
2024-03-02 02:50 am S 11.1 14.0------ 33.8-----
2024-03-02 02:40 am S 9.9 15.0------ 33.6-----
2024-03-02 02:30 am S 9.9 15.9------ 33.8-----
2024-03-02 02:20 am S 11.1 15.0------ 33.8-----
2024-03-02 02:10 am S 11.1 15.0------ 34.0-----
2024-03-02 02:00 am S 11.1 15.0------ 33.6-----
2024-03-02 01:50 am S 9.9 14.0------ 33.6-----
2024-03-02 01:40 am S 11.1 14.0------ 34.2-----
2024-03-02 01:30 am S 12.0 15.0------ 34.5-----
2024-03-02 01:20 am S 13.0 15.0------ 34.7-----
2024-03-02 01:10 am S 9.9 13.0------ 34.7-----
2024-03-02 01:00 am S 11.1 12.0------ 34.5-----
2024-03-02 12:50 amSSE 11.1 13.0------ 34.2-----
2024-03-02 12:40 am S 8.9 13.0------ 34.2-----
2024-03-02 12:30 amSSE 8.0 12.0------ 33.6-----
2024-03-02 12:20 amSSE 7.0 11.1------ 33.6-----
2024-03-02 12:10 amSSE 7.0 11.1------ 34.3-----
2024-03-02 12:00 am S 8.9 11.1------ 34.3-----
2024-03-01 11:50 pm S 8.9 11.1------ 33.8-----
2024-03-01 11:40 pm S 7.0 11.1------ 34.2-----
2024-03-01 11:30 pm S 11.1 13.0------ 35.4-----
2024-03-01 11:20 pm S 9.9 12.0------ 35.2-----
2024-03-01 11:10 pmSSE 8.9 12.0------ 35.4-----
2024-03-01 11:00 pmSSE 9.9 12.0------ 35.8-----
2024-03-01 10:50 pmSSE 11.1 14.0------ 35.6-----
2024-03-01 10:40 pmSSE 11.1 14.0------ 35.4-----
2024-03-01 10:30 pm S 12.0 15.0------ 35.8-----
2024-03-01 10:20 pm S 12.0 15.0------ 36.0-----
2024-03-01 10:10 pm S 12.0 13.0------ 34.9-----
2024-03-01 10:00 pmSSE 7.0 11.1------ 34.2-----
2024-03-01 09:50 pm S 9.9 12.0------ 34.3-----
2024-03-01 09:40 pm S 8.0 9.9------ 34.2-----
2024-03-01 09:30 pm S 8.0 14.0------ 34.9-----
2024-03-01 09:20 pm S 11.1 14.0------ 35.2-----
2024-03-01 09:10 pm S 13.0 15.0------ 36.0-----
2024-03-01 09:00 pm S 13.0 17.1------ 36.1-----
2024-03-01 08:50 pm S 15.0 17.1------ 36.0-----
2024-03-01 08:40 pm S 14.0 17.1------ 36.0-----
2024-03-01 08:30 pmSSE 14.0 17.1------ 36.0-----
2024-03-01 08:20 pm S 15.0 18.1------ 36.1-----
2024-03-01 08:10 pm S 15.0 18.1------ 36.1-----
2024-03-01 08:00 pm S 14.0 15.9------ 36.3-----
2024-03-01 07:50 pm S 14.0 17.1------ 36.5-----
2024-03-01 07:40 pm S 15.0 17.1------ 37.2-----
2024-03-01 07:30 pm S 13.0 17.1------ 37.4-----
2024-03-01 07:20 pm S 12.0 17.1------ 37.0-----
2024-03-01 07:10 pm S 13.0 17.1------ 37.4-----
2024-03-01 07:00 pm S 13.0 15.9------ 37.4-----
2024-03-01 06:50 pm S 12.0 18.1------ 37.8-----
2024-03-01 06:40 pmSSW 12.0 15.9------ 37.8-----
2024-03-01 06:30 pm S 12.0 15.9------ 38.3-----
2024-03-01 06:20 pm S 14.0 17.1------ 38.3-----
2024-03-01 06:10 pm S 9.9 15.9------ 37.8-----
2024-03-01 06:00 pm S 12.0 18.1------ 38.1-----
2024-03-01 05:50 pm S 13.0 21.0------ 38.5-----
2024-03-01 05:40 pm S 17.1 21.0------ 39.0-----
2024-03-01 05:30 pm S 17.1 21.0------ 38.8-----
2024-03-01 05:20 pm S 14.0 19.0------ 39.0-----
2024-03-01 05:10 pm S 13.0 20.0------ 39.2-----
2024-03-01 05:00 pm S 15.0 19.0------ 39.4-----
2024-03-01 04:50 pm S 12.0 20.0------ 38.8-----
2024-03-01 04:40 pm S 15.0 19.0------ 39.2-----
2024-03-01 04:30 pm S 13.0 20.0------ 39.6-----
2024-03-01 04:20 pm S 17.1 20.0------ 39.4-----
2024-03-01 04:10 pm S 15.0 18.1------ 39.2-----
2024-03-01 04:00 pm S 12.0 21.0------ 39.2-----
2024-03-01 03:50 pm S 14.0 18.1------ 39.4-----
2024-03-01 03:40 pm S 14.0 19.0------ 39.4-----
2024-03-01 03:30 pm S 13.0 18.1------ 39.9-----
2024-03-01 03:20 pm S 12.0 18.1------ 40.3-----
2024-03-01 03:10 pm S 13.0 19.0------ 39.7-----
2024-03-01 03:00 pm S 13.0 18.1------ 39.9-----
2024-03-01 02:50 pm S 15.9 19.0------ 39.6-----
2024-03-01 02:40 pm S 15.0 19.0------ 39.6-----
2024-03-01 02:30 pm S 15.0 17.1------ 40.1-----
2024-03-01 02:20 pm S 14.0 19.0------ 39.9-----
2024-03-01 02:10 pm S 15.0 19.0------ 39.7-----
2024-03-01 02:00 pm S 15.9 18.1------ 39.6-----
2024-03-01 01:50 pm S 13.0 14.0------ 39.7-----
2024-03-01 01:40 pm S 11.1 15.0------ 39.4-----
2024-03-01 01:30 pm S 13.0 15.9------ 39.7-----
2024-03-01 01:20 pm S 14.0 21.0------ 38.8-----
2024-03-01 01:10 pm S 14.0 20.0------ 38.3-----
2024-03-01 01:00 pm S 13.0 18.1------ 37.8-----
2024-03-01 12:50 pmSSW 15.9 20.0------ 37.6-----
2024-03-01 12:40 pmSSW 15.9 20.0------ 37.8-----
2024-03-01 12:30 pmSSW 17.1 22.0------ 37.9-----
2024-03-01 12:20 pmSSW 15.0 17.1------ 37.8-----
2024-03-01 12:10 pm S 15.0 18.1------ 38.7-----
2024-03-01 12:00 pm S 17.1 20.0------ 38.5-----
2024-03-01 11:50 am S 15.9 19.0------ 37.9-----